Pagrindinis puslapis
METAR-TAF:

METAR-TAF

Oro uostai :

Vekšė, Švedija

platuma: 56-51N, ilguma: 014-50E, Aukštis: 199 m

Dabartinis oras

Ataskaita buvo paskelbta 42 minutes, ne 02:20 UTC
Vėjas 3 kt iš Pietvakarių
Temperatūra
Slėgis 1025 hPa
Matomumas: 0100 m
rūkana

METAR: ESMX 240220Z AUTO 22003KT 0100 R01/P2000N R19/0350N BR NCD ///// Q1025

Laikas: 05:02 (03:02 UTC)

Prognozė

Ataskaita buvo paskelbta 6 valandos ir 32 minutes, ne 20:30 UTC
Prognozė galioja nuo 23 metu 21 UTC su 23 metu 24 UTC
Vėjas 6 kt iš Pietvakarių
Matomumas 10 km arba daugiau
nėra debesų žemiau 1500 m ir nėra kamuolinių lietaus debesų
Tikimybė 40%
nuo 23 metu 21 UTC su 23 metu 24 UTC
Matomumas: 2000 m
Su prošvaistėmis ne aukštis 300 ft
rūkana

TAF: ESMX 232030Z 2321/2324 22006KT CAVOK PROB40 2321/2324 2000 BR BKN003

Orai ataskaitas ir orų prognozės (METAR, TAF).

turimą stotys yra geltonos ir raudonos taškus žemėlapyje.

Perkelti pele per norėdami pamatyti stoties vardą.

Tada spustelėkite, norėdami matyti oro stebėjimo ir prognozės.

Norėdami pakeisti žemėlapį: spustelėkite ant žalios mygtukų su juodo kryžiaus žemyn,; žalią mygtuką su brūkšneliu, jei norite nutolinti; arba žalių rodyklių gretimoms žemėlapius.


METAR-TAF: